Time;durP1;ratioP1;P1;durP2;ratioP2;P2;SDS_P1;SDS_P2;PMS_P1;PMS_P2;Temp;Humidity;BMP_temperature;BMP_pressure;BME280_temperature;BME280_humidity;BME280_pressure;Samples;Min_cycle;Max_cycle;Signal;HPM_P1;HPM_P2
2023/04/21 00:00:01;;;;;;;20.23;17.58;;;230.70;2252.80;;;;;;5015394;28;20080;-60
2023/04/21 00:02:26;;;;;;;14.70;11.70;;;230.80;2252.80;;;;;;5034810;28;20104;-62
2023/04/21 00:04:52;;;;;;;15.02;11.77;;;230.80;2252.80;;;;;;5026156;28;20030;-61
2023/04/21 00:07:19;;;;;;;19.88;11.82;;;230.80;2252.80;;;;;;5018992;28;20026;-57
2023/04/21 00:09:45;;;;;;;20.15;13.55;;;230.90;2252.80;;;;;;5027821;28;20026;-58
2023/04/21 00:12:11;;;;;;;20.25;12.70;;;231.00;2252.80;;;;;;5025423;28;20021;-56
2023/04/21 00:14:38;;;;;;;17.95;12.25;;;231.10;2252.80;;;;;;5015503;28;20026;-57
2023/04/21 00:17:05;;;;;;;20.70;13.48;;;231.10;2252.80;;;;;;5012400;28;20038;-57
2023/04/21 00:19:30;;;;;;;17.08;12.40;;;231.20;2252.80;;;;;;5012621;28;20399;-59
2023/04/21 00:22:00;;;;;;;15.75;11.57;;;231.30;2252.80;;;;;;5020029;28;20111;-57
2023/04/21 00:24:25;;;;;;;15.60;12.10;;;256.10;2252.80;;;;;;5031901;28;20618;-57
2023/04/21 00:26:51;;;;;;;16.20;12.95;;;256.20;2252.80;;;;;;5031979;28;20096;-57
2023/04/21 00:29:17;;;;;;;24.90;14.32;;;256.40;2252.80;;;;;;5031824;28;20120;-57
2023/04/21 00:31:43;;;;;;;18.60;12.38;;;256.40;2252.80;;;;;;5031677;28;20029;-60
2023/04/21 00:34:08;;;;;;;20.17;13.10;;;256.40;2252.80;;;;;;5031281;28;20025;-61
2023/04/21 00:36:34;;;;;;;19.83;14.02;;;256.50;2252.80;;;;;;5031885;28;20037;-60
2023/04/21 00:39:00;;;;;;;18.63;13.65;;;256.50;2252.80;;;;;;5031625;28;20379;-56
2023/04/21 00:41:28;;;;;;;17.65;12.57;;;256.50;2252.80;;;;;;5031479;28;20072;-60
2023/04/21 00:44:07;;;;;;;19.65;13.73;;;256.50;2252.80;;;;;;5031264;28;20083;-57
2023/04/21 00:46:34;;;;;;;17.40;14.68;;;256.30;2252.80;;;;;;5031765;28;20041;-57
2023/04/21 00:49:03;;;;;;;16.48;13.13;;;256.10;2252.80;;;;;;5031465;28;20439;-57
2023/04/21 00:51:31;;;;;;;29.63;15.32;;;231.30;2252.80;;;;;;5031299;28;20022;-61
2023/04/21 00:53:58;;;;;;;20.83;14.23;;;231.20;2252.80;;;;;;5031301;28;20089;-57
2023/04/21 00:56:25;;;;;;;61.53;48.33;;;231.10;2252.80;;;;;;5031426;28;20037;-57
2023/04/21 00:58:52;;;;;;;19.75;14.73;;;231.20;2252.80;;;;;;5030897;28;20461;-60
2023/04/21 01:01:18;;;;;;;16.90;11.75;;;231.20;2252.80;;;;;;5031389;28;20034;-57
2023/04/21 01:03:46;;;;;;;14.20;12.02;;;231.10;2252.80;;;;;;5031092;28;20671;-60
2023/04/21 01:06:12;;;;;;;18.42;13.25;;;231.10;2252.80;;;;;;5031373;28;20029;-58
2023/04/21 01:08:38;;;;;;;16.00;12.85;;;231.10;2252.80;;;;;;5031017;28;20152;-61
2023/04/21 01:11:14;;;;;;;16.00;12.27;;;231.00;2252.80;;;;;;5031080;28;20040;-57
2023/04/21 01:13:40;;;;;;;18.20;14.10;;;231.20;2252.80;;;;;;5030954;28;20025;-61
2023/04/21 01:16:09;;;;;;;24.85;15.02;;;231.00;2252.80;;;;;;5030851;28;20503;-58
2023/04/21 01:18:38;;;;;;;23.98;13.82;;;231.00;2252.80;;;;;;5030695;28;20510;-57
2023/04/21 01:21:06;;;;;;;16.70;12.65;;;231.10;2252.80;;;;;;5030673;28;20112;-56
2023/04/21 01:23:32;;;;;;;24.42;15.48;;;231.20;2252.80;;;;;;5031277;28;20497;-61
2023/04/21 01:25:57;;;;;;;17.58;12.77;;;231.20;2252.80;;;;;;5030706;28;20156;-56
2023/04/21 01:28:25;;;;;;;19.48;13.40;;;231.20;2252.80;;;;;;5029957;28;20052;-57
2023/04/21 01:30:51;;;;;;;19.85;13.63;;;231.30;2252.80;;;;;;5030799;28;20025;-56
2023/04/21 01:33:18;;;;;;;22.00;15.20;;;256.00;2252.80;;;;;;5030339;28;20033;-61
2023/04/21 01:35:44;;;;;;;16.13;11.60;;;256.10;2252.80;;;;;;5030710;28;20383;-57
2023/04/21 01:38:09;;;;;;;17.35;11.63;;;256.10;2252.80;;;;;;5030544;28;20490;-62
2023/04/21 01:40:35;;;;;;;18.45;14.05;;;256.10;2252.80;;;;;;5030387;28;20021;-58
2023/04/21 01:43:02;;;;;;;19.48;13.43;;;256.20;2252.80;;;;;;5030522;28;20037;-58
2023/04/21 01:45:29;;;;;;;15.93;12.13;;;256.20;2252.80;;;;;;5030356;28;20029;-59
2023/04/21 01:47:55;;;;;;;16.35;12.63;;;256.20;2252.80;;;;;;5030016;28;20032;-57
2023/04/21 01:50:21;;;;;;;21.88;13.02;;;256.20;2252.80;;;;;;5030310;28;20017;-60
2023/04/21 01:52:46;;;;;;;16.23;12.15;;;256.20;2252.80;;;;;;5030284;28;20072;-60
2023/04/21 01:55:13;;;;;;;17.58;12.40;;;256.10;2252.80;;;;;;5030061;28;20065;-59
2023/04/21 01:57:39;;;;;;;18.90;13.77;;;231.30;2252.80;;;;;;5029964;28;20447;-61
2023/04/21 02:00:06;;;;;;;23.75;13.32;;;231.30;2252.80;;;;;;5029903;28;20037;-58
2023/04/21 02:02:32;;;;;;;18.75;12.73;;;231.20;2252.80;;;;;;5030042;28;20033;-61
2023/04/21 02:04:58;;;;;;;16.15;12.25;;;231.20;2252.80;;;;;;5029953;28;20456;-57
2023/04/21 02:07:23;;;;;;;17.50;12.60;;;231.10;2252.80;;;;;;5030022;28;20087;-58
2023/04/21 02:09:49;;;;;;;17.23;13.45;;;231.00;2252.80;;;;;;5029563;28;20064;-60
2023/04/21 02:12:15;;;;;;;37.85;32.72;;;231.10;2252.80;;;;;;5029984;28;20125;-59
2023/04/21 02:14:40;;;;;;;25.20;19.42;;;231.20;2252.80;;;;;;5029911;28;20017;-60
2023/04/21 02:17:06;;;;;;;18.92;14.07;;;231.20;2252.80;;;;;;5029893;28;20116;-57
2023/04/21 02:19:32;;;;;;;15.88;12.20;;;231.10;2252.80;;;;;;5029997;28;20021;-57
2023/04/21 02:21:57;;;;;;;18.63;13.02;;;231.10;2252.80;;;;;;5030026;28;20379;-57
2023/04/21 02:24:23;;;;;;;20.13;13.80;;;231.20;2252.80;;;;;;5029575;28;20071;-57
2023/04/21 02:26:49;;;;;;;19.60;12.45;;;231.20;2252.80;;;;;;5029374;28;20112;-57
2023/04/21 02:29:14;;;;;;;20.45;13.57;;;231.20;2252.80;;;;;;5029743;28;20033;-59
2023/04/21 02:31:40;;;;;;;16.95;12.57;;;231.20;2252.80;;;;;;5029990;28;20459;-58
2023/04/21 02:34:06;;;;;;;19.42;13.02;;;231.20;2252.80;;;;;;5029431;28;20100;-57
2023/04/21 02:36:32;;;;;;;17.88;12.95;;;231.20;2252.80;;;;;;5029652;28;20026;-61
2023/04/21 02:38:58;;;;;;;17.70;13.80;;;231.20;2252.80;;;;;;5028466;28;20025;-57
2023/04/21 02:41:24;;;;;;;17.40;13.40;;;231.20;2252.80;;;;;;5029806;28;20021;-58
2023/04/21 02:43:49;;;;;;;20.23;13.20;;;256.00;2252.80;;;;;;5028984;28;20476;-60
2023/04/21 02:46:15;;;;;;;17.75;13.10;;;256.10;2252.80;;;;;;5029391;28;20045;-57
2023/04/21 02:48:41;;;;;;;14.68;11.52;;;256.20;2252.80;;;;;;5029723;28;20479;-61
2023/04/21 02:51:14;;;;;;;15.27;11.52;;;256.20;2252.80;;;;;;5029268;28;20021;-57
2023/04/21 02:53:40;;;;;;;21.13;15.27;;;256.20;2252.80;;;;;;5029327;28;20075;-60
2023/04/21 02:56:09;;;;;;;17.05;12.27;;;256.00;2252.80;;;;;;5029146;28;20506;-57
2023/04/21 02:58:35;;;;;;;18.65;12.55;;;256.00;2252.80;;;;;;5028861;28;20021;-59
2023/04/21 03:01:02;;;;;;;21.05;13.10;;;231.20;2252.80;;;;;;5029434;28;20029;-60
2023/04/21 03:03:28;;;;;;;19.45;13.90;;;231.20;2252.80;;;;;;5029052;28;20013;-60
2023/04/21 03:06:02;;;;;;;16.52;13.05;;;231.20;2252.80;;;;;;5029329;28;20036;-57
2023/04/21 03:08:28;;;;;;;20.42;13.98;;;231.20;2252.80;;;;;;5029158;28;20026;-61
2023/04/21 03:10:54;;;;;;;19.08;13.25;;;231.20;2252.80;;;;;;5029196;28;20435;-57
2023/04/21 03:13:20;;;;;;;18.27;12.90;;;231.30;2252.80;;;;;;5028702;28;20045;-62
2023/04/21 03:15:46;;;;;;;19.65;14.10;;;231.30;2252.80;;;;;;5028769;28;20033;-58
2023/04/21 03:18:12;;;;;;;17.52;12.60;;;231.30;2252.80;;;;;;5029015;28;20041;-57
2023/04/21 03:20:37;;;;;;;21.98;16.20;;;256.10;2252.80;;;;;;5028896;28;20068;-58
2023/04/21 03:23:03;;;;;;;19.17;14.23;;;256.00;2252.80;;;;;;5028974;28;20030;-58
2023/04/21 03:25:29;;;;;;;22.77;14.90;;;256.10;2252.80;;;;;;5028848;28;20273;-61
2023/04/21 03:27:55;;;;;;;21.70;16.08;;;256.20;2252.80;;;;;;5028770;28;20820;-59
2023/04/21 03:30:22;;;;;;;16.48;13.02;;;256.20;2252.80;;;;;;5029061;28;20021;-62
2023/04/21 03:32:47;;;;;;;19.73;13.02;;;256.20;2252.80;;;;;;5028579;28;20048;-57
2023/04/21 03:35:13;;;;;;;18.67;14.07;;;256.20;2252.80;;;;;;5029336;28;20463;-57
2023/04/21 03:37:39;;;;;;;22.35;14.05;;;256.20;2252.80;;;;;;5028712;28;20471;-57
2023/04/21 03:40:06;;;;;;;21.88;12.95;;;256.20;2252.80;;;;;;5028924;28;20028;-60
2023/04/21 03:42:31;;;;;;;21.27;13.88;;;256.40;2252.80;;;;;;5028969;28;20157;-58
2023/04/21 03:45:08;;;;;;;20.02;14.98;;;256.50;2252.80;;;;;;5028545;28;20100;-56
2023/04/21 03:47:34;;;;;;;16.98;13.38;;;256.50;2252.80;;;;;;5028779;28;20029;-60
2023/04/21 03:50:02;;;;;;;19.00;12.90;;;256.50;2252.80;;;;;;5029111;28;20022;-60
2023/04/21 03:52:28;;;;;;;17.98;12.38;;;256.40;2252.80;;;;;;5032672;28;20025;-59
2023/04/21 03:54:54;;;;;;;19.33;13.45;;;256.40;2252.80;;;;;;5032577;28;20040;-61
2023/04/21 03:57:19;;;;;;;18.50;14.48;;;256.40;2252.80;;;;;;5032077;28;20132;-62
2023/04/21 03:59:45;;;;;;;20.48;14.52;;;256.40;2252.80;;;;;;5032290;28;20260;-58
2023/04/21 04:02:11;;;;;;;16.27;12.95;;;256.50;2252.80;;;;;;5032507;28;20037;-61
2023/04/21 04:04:36;;;;;;;18.83;13.98;;;256.50;2252.80;;;;;;5032368;28;20025;-60
2023/04/21 04:07:02;;;;;;;26.88;14.80;;;256.50;2252.80;;;;;;5032687;28;20048;-62
2023/04/21 04:09:28;;;;;;;21.58;15.10;;;256.60;2252.80;;;;;;5031993;28;20480;-60
2023/04/21 04:11:54;;;;;;;18.98;14.25;;;256.50;2252.80;;;;;;5032383;28;20083;-58
2023/04/21 04:14:19;;;;;;;22.58;14.25;;;256.50;2252.80;;;;;;5031872;28;20026;-62
2023/04/21 04:16:45;;;;;;;19.77;14.77;;;256.60;2252.80;;;;;;5031880;28;20095;-58
2023/04/21 04:19:11;;;;;;;20.50;13.82;;;256.60;2252.80;;;;;;5032336;28;20032;-61
2023/04/21 04:21:37;;;;;;;22.23;14.25;;;256.80;2252.80;;;;;;5032232;28;20467;-60
2023/04/21 04:24:04;;;;;;;18.65;14.90;;;256.90;2252.80;;;;;;5032365;28;20017;-57
2023/04/21 04:26:32;;;;;;;20.50;13.48;;;256.90;2252.80;;;;;;5031817;28;20371;-59
2023/04/21 04:28:59;;;;;;;18.85;14.25;;;281.70;2278.40;;;;;;5031600;28;20116;-57
2023/04/21 04:31:25;;;;;;;18.55;12.43;;;281.70;2278.40;;;;;;5031917;28;20037;-57
2023/04/21 04:33:51;;;;;;;19.17;14.23;;;282.00;2278.40;;;;;;5031694;28;20034;-61
2023/04/21 04:36:17;;;;;;;17.67;13.77;;;307.30;2304.00;;;;;;5031500;28;20075;-59
2023/04/21 04:38:42;;;;;;;17.00;12.98;;;333.70;2329.60;;;;;;5031584;28;20037;-57
2023/04/21 04:41:08;;;;;;;19.13;14.57;;;384.00;2329.60;;;;;;5031819;28;20029;-58
2023/04/21 04:43:37;;;;;;;16.02;12.63;;;358.70;2329.60;;;;;;5031537;28;20022;-61
2023/04/21 04:46:04;;;;;;;14.88;11.60;;;333.40;2329.60;;;;;;5031729;28;20017;-59
2023/04/21 04:48:30;;;;;;;15.85;11.18;;;358.50;2329.60;;;;;;5030908;28;20036;-61
2023/04/21 04:50:55;;;;;;;17.80;12.95;;;409.70;2355.20;;;;;;5031131;28;20021;-58
2023/04/21 04:53:21;;;;;;;19.58;12.60;;;435.50;2355.20;;;;;;5031805;28;20060;-57
2023/04/21 04:55:47;;;;;;;13.90;11.68;;;461.30;2176.00;;;;;;5031008;28;20487;-58
2023/04/21 04:58:13;;;;;;;14.48;12.93;;;486.80;2048.00;;;;;;5031114;28;20049;-62
2023/04/21 05:00:39;;;;;;;17.85;13.13;;;487.10;2022.40;;;;;;5030960;28;20069;-63
2023/04/21 05:03:05;;;;;;;16.95;12.70;;;486.90;1996.80;;;;;;5030304;28;20068;-59
2023/04/21 05:05:31;;;;;;;18.13;11.65;;;487.20;1971.20;;;;;;5031150;28;20076;-58
2023/04/21 05:07:57;;;;;;;19.85;12.18;;;512.20;1971.20;;;;;;5031063;28;20025;-57
2023/04/21 05:10:23;;;;;;;17.35;13.23;;;538.00;1868.80;;;;;;5030727;28;20029;-57
2023/04/21 05:12:49;;;;;;;14.95;13.13;;;563.30;1817.60;;;;;;5030913;28;20543;-57
2023/04/21 05:15:16;;;;;;;17.40;13.68;;;563.50;1766.40;;;;;;5030671;28;20029;-58
2023/04/21 05:17:42;;;;;;;16.33;13.95;;;512.20;1843.20;;;;;;5030832;28;20048;-58
2023/04/21 05:20:08;;;;;;;16.80;14.18;;;461.30;2048.00;;;;;;5030900;28;20087;-58
2023/04/21 05:22:37;;;;;;;19.10;13.68;;;435.90;2099.20;;;;;;5030471;28;20033;-57
2023/04/21 05:25:04;;;;;;;18.45;13.55;;;435.40;2150.40;;;;;;5030916;28;20021;-57
2023/04/21 05:27:30;;;;;;;17.50;13.73;;;410.10;2252.80;;;;;;5030635;28;20037;-57
2023/04/21 05:29:55;;;;;;;19.20;13.77;;;409.80;2329.60;;;;;;5030438;28;20379;-58
2023/04/21 05:32:21;;;;;;;14.55;11.75;;;410.20;2355.20;;;;;;5030512;28;20129;-60
2023/04/21 05:34:47;;;;;;;17.90;14.43;;;435.90;2227.20;;;;;;5030141;28;20483;-62
2023/04/21 05:37:12;;;;;;;20.95;13.75;;;461.70;2150.40;;;;;;5030532;28;20053;-58
2023/04/21 05:39:38;;;;;;;18.75;13.18;;;563.70;1843.20;;;;;;5030526;28;20057;-57
2023/04/21 05:42:04;;;;;;;16.90;13.90;;;615.00;1638.40;;;;;;5030515;28;20904;-58
2023/04/21 05:44:29;;;;;;;14.88;12.00;;;640.70;1510.40;;;;;;5030132;28;20472;-62
2023/04/21 05:46:55;;;;;;;16.80;12.00;;;666.50;1459.20;;;;;;5030113;28;20060;-58
2023/04/21 05:49:21;;;;;;;14.60;13.20;;;691.90;1408.00;;;;;;5030810;28;20025;-62
2023/04/21 05:51:46;;;;;;;16.08;14.35;;;666.30;1433.60;;;;;;5030223;28;20038;-60
2023/04/21 05:54:12;;;;;;;14.75;13.23;;;691.80;1382.40;;;;;;5030311;28;20032;-62
2023/04/21 05:56:38;;;;;;;14.02;12.55;;;717.00;1382.40;;;;;;5029461;28;20025;-58
2023/04/21 05:59:05;;;;;;;14.52;13.02;;;691.30;1433.60;;;;;;5029859;28;20081;-61
2023/04/21 06:01:31;;;;;;;14.85;13.25;;;691.80;1382.40;;;;;;5030014;28;20064;-58
2023/04/21 06:03:57;;;;;;;17.55;13.35;;;691.70;1408.00;;;;;;5029391;28;20064;-63
2023/04/21 06:06:25;;;;;;;16.83;14.20;;;691.90;1382.40;;;;;;5029612;28;20060;-62
2023/04/21 06:08:51;;;;;;;16.60;12.52;;;691.60;1382.40;;;;;;5030202;28;20021;-59
2023/04/21 06:11:17;;;;;;;15.00;13.43;;;716.90;1356.80;;;;;;5029649;28;20526;-59
2023/04/21 06:13:42;;;;;;;16.98;14.60;;;692.10;1382.40;;;;;;5029849;28;20108;-59
2023/04/21 06:16:08;;;;;;;16.00;14.55;;;717.50;1331.20;;;;;;5029854;28;20056;-58
2023/04/21 06:18:34;;;;;;;17.75;13.57;;;717.50;1356.80;;;;;;5029690;28;20025;-63
2023/04/21 06:20:59;;;;;;;15.88;14.27;;;717.50;1331.20;;;;;;5029044;28;20040;-58
2023/04/21 06:23:25;;;;;;;17.23;15.52;;;717.40;1331.20;;;;;;5029790;28;20470;-59
2023/04/21 06:26:05;;;;;;;17.77;15.95;;;691.40;1382.40;;;;;;5028763;28;20020;-58
2023/04/21 06:28:32;;;;;;;17.17;15.50;;;665.60;1459.20;;;;;;5029552;28;20033;-64
2023/04/21 06:31:02;;;;;;;20.75;14.55;;;665.60;1459.20;;;;;;5029647;28;20396;-62
2023/04/21 06:33:28;;;;;;;18.92;17.02;;;614.90;1510.40;;;;;;5029272;28;20029;-62
2023/04/21 06:35:54;;;;;;;19.10;17.15;;;614.80;1536.00;;;;;;5029310;28;20021;-62
2023/04/21 06:38:21;;;;;;;20.25;18.40;;;640.90;1459.20;;;;;;5029444;28;20074;-62
2023/04/21 06:40:46;;;;;;;20.48;18.30;;;666.00;1433.60;;;;;;5029304;28;20475;-61
2023/04/21 06:43:12;;;;;;;20.55;13.45;;;717.30;1382.40;;;;;;5029422;28;20037;-64
2023/04/21 06:45:38;;;;;;;14.38;12.98;;;742.70;1331.20;;;;;;5029623;28;20507;-63
2023/04/21 06:48:04;;;;;;;16.55;14.88;;;742.80;1331.20;;;;;;5029311;28;20033;-63
2023/04/21 06:50:30;;;;;;;16.80;14.93;;;768.90;1280.00;;;;;;5022046;28;20018;-63
2023/04/21 06:52:55;;;;;;;14.82;13.30;;;819.80;1203.20;;;;;;5023296;28;20036;-63
2023/04/21 06:55:21;;;;;;;14.70;13.40;;;845.00;1203.20;;;;;;5029227;28;20025;-63
2023/04/21 06:57:47;;;;;;;14.68;13.23;;;845.10;1177.60;;;;;;5028809;28;20044;-67
2023/04/21 07:00:13;;;;;;;16.35;14.75;;;820.00;1177.60;;;;;;5029137;28;20491;-67
2023/04/21 07:02:40;;;;;;;16.83;15.20;;;820.10;1152.00;;;;;;5028546;28;20029;-67
2023/04/21 07:05:06;;;;;;;19.05;17.25;;;819.70;1177.60;;;;;;5028405;28;20104;-68
2023/04/21 07:07:33;;;;;;;16.73;13.77;;;819.90;1152.00;;;;;;5028814;28;20479;-67
2023/04/21 07:09:59;;;;;;;14.25;12.93;;;819.50;1203.20;;;;;;5028817;28;20017;-66
2023/04/21 07:12:25;;;;;;;14.93;13.48;;;819.50;1177.60;;;;;;5028733;28;20059;-67
2023/04/21 07:14:50;;;;;;;13.23;11.93;;;820.10;1177.60;;;;;;5028219;28;20041;-67
2023/04/21 07:17:16;;;;;;;12.45;11.23;;;870.60;1126.40;;;;;;5028464;28;20029;-69
2023/04/21 07:19:42;;;;;;;12.02;10.85;;;819.90;1152.00;;;;;;5028692;28;20463;-68
2023/04/21 07:22:07;;;;;;;12.38;10.70;;;794.20;1203.20;;;;;;5028845;28;20033;-68
2023/04/21 07:24:34;;;;;;;12.20;11.00;;;768.60;1203.20;;;;;;5025876;28;20022;-66
2023/04/21 07:27:01;;;;;;;14.07;11.23;;;743.10;1280.00;;;;;;5032419;28;20108;-66
2023/04/21 07:29:27;;;;;;;18.33;12.15;;;794.30;1203.20;;;;;;5032465;28;20025;-66
2023/04/21 07:31:53;;;;;;;16.35;12.82;;;742.80;1280.00;;;;;;5032831;28;20022;-66
2023/04/21 07:34:19;;;;;;;76.32;47.47;;;844.90;1203.20;;;;;;5032555;28;20490;-68
2023/04/21 07:36:45;;;;;;;14.15;12.77;;;819.30;1203.20;;;;;;5032962;28;20034;-67
2023/04/21 07:39:11;;;;;;;13.05;11.90;;;742.90;1305.60;;;;;;5033010;28;20104;-66
2023/04/21 07:41:36;;;;;;;14.98;13.30;;;768.50;1254.40;;;;;;5032369;28;20025;-66
2023/04/21 07:44:02;;;;;;;12.30;10.73;;;819.50;1177.60;;;;;;5032649;28;20024;-68
2023/04/21 07:46:30;;;;;;;15.38;13.80;;;870.90;1100.80;;;;;;5032230;28;20017;-68
2023/04/21 07:48:57;;;;;;;13.93;11.68;;;896.90;1075.20;;;;;;5032671;28;20048;-69
2023/04/21 07:51:23;;;;;;;12.13;10.32;;;922.30;1049.60;;;;;;5032586;28;20021;-68
2023/04/21 07:53:49;;;;;;;12.13;9.18;;;871.00;1075.20;;;;;;5032734;28;20445;-67
2023/04/21 07:56:15;;;;;;;10.25;9.15;;;870.50;1100.80;;;;;;5032210;28;20101;-65
2023/04/21 07:58:41;;;;;;;12.35;10.40;;;819.70;1177.60;;;;;;5032278;28;20080;-65
2023/04/21 08:01:07;;;;;;;11.27;10.23;;;819.20;1203.20;;;;;;5032009;28;20044;-65
2023/04/21 08:03:32;;;;;;;11.70;9.23;;;845.10;1177.60;;;;;;5020913;28;20026;-65
2023/04/21 08:05:58;;;;;;;12.55;11.25;;;870.80;1100.80;;;;;;5030369;28;20021;-65
2023/04/21 08:08:24;;;;;;;13.45;11.20;;;845.60;1177.60;;;;;;5031847;28;20025;-65
2023/04/21 08:10:50;;;;;;;14.05;10.85;;;794.40;1203.20;;;;;;5032170;28;20021;-65
2023/04/21 08:13:15;;;;;;;12.57;10.13;;;870.50;1126.40;;;;;;5032121;28;20052;-65
2023/04/21 08:15:41;;;;;;;10.05;8.82;;;820.10;1152.00;;;;;;5032150;28;20033;-65
2023/04/21 08:18:08;;;;;;;12.32;9.23;;;768.90;1203.20;;;;;;5031687;28;20060;-65
2023/04/21 08:20:33;;;;;;;19.05;10.60;;;742.40;1305.60;;;;;;5032041;28;20061;-66
2023/04/21 08:22:59;;;;;;;14.50;9.90;;;716.90;1331.20;;;;;;5031543;28;20128;-64
2023/04/21 08:25:25;;;;;;;15.38;9.65;;;666.00;1382.40;;;;;;5032111;28;20033;-64
2023/04/21 08:27:51;;;;;;;13.48;9.25;;;640.60;1408.00;;;;;;5031967;28;20061;-64
2023/04/21 08:30:17;;;;;;;13.68;10.02;;;614.80;1459.20;;;;;;5031941;28;20072;-64
2023/04/21 08:32:43;;;;;;;13.38;9.88;;;615.20;1459.20;;;;;;5031909;28;20021;-63
2023/04/21 08:35:09;;;;;;;15.63;10.55;;;615.30;1459.20;;;;;;5031527;28;20476;-64
2023/04/21 08:37:36;;;;;;;12.43;10.32;;;615.30;1459.20;;;;;;5030189;28;20443;-64
2023/04/21 08:40:03;;;;;;;16.05;10.75;;;615.20;1510.40;;;;;;5031793;28;20025;-64
2023/04/21 08:42:29;;;;;;;17.15;8.65;;;614.50;1587.20;;;;;;5031411;28;20025;-65
2023/04/21 08:44:55;;;;;;;16.25;10.55;;;614.40;1561.60;;;;;;5031854;28;20037;-64
2023/04/21 08:47:23;;;;;;;12.07;9.68;;;614.50;1536.00;;;;;;5031104;28;20075;-63
2023/04/21 08:49:50;;;;;;;18.98;9.77;;;614.40;1561.60;;;;;;5031775;28;20372;-64
2023/04/21 08:52:17;;;;;;;14.07;10.13;;;614.90;1510.40;;;;;;5031451;28;20030;-65
2023/04/21 08:54:43;;;;;;;11.82;9.13;;;615.10;1484.80;;;;;;5031410;28;20112;-65
2023/04/21 08:57:09;;;;;;;13.20;9.18;;;589.70;1536.00;;;;;;5030866;28;20112;-63
2023/04/21 08:59:35;;;;;;;12.93;9.55;;;614.40;1536.00;;;;;;5031375;28;20057;-64
2023/04/21 09:02:10;;;;;;;18.13;14.27;;;589.70;1536.00;;;;;;5030752;28;20026;-65
2023/04/21 09:04:41;;;;;;;13.13;10.20;;;589.60;1612.80;;;;;;5030958;28;20388;-65
2023/04/21 09:07:07;;;;;;;17.90;11.15;;;589.50;1561.60;;;;;;5031325;28;20017;-65
2023/04/21 09:09:54;;;;;;;14.20;9.10;;;589.60;1561.60;;;;;;5030953;28;20040;-64
2023/04/21 09:12:20;;;;;;;16.77;11.07;;;589.50;1561.60;;;;;;5019120;28;20026;-65
2023/04/21 09:14:46;;;;;;;16.85;11.43;;;589.20;1587.20;;;;;;5029104;28;20438;-65
2023/04/21 09:17:14;;;;;;;13.20;10.75;;;564.10;1612.80;;;;;;5030913;28;20037;-63
2023/04/21 09:19:39;;;;;;;13.02;9.93;;;564.10;1638.40;;;;;;5029679;28;20022;-66
2023/04/21 09:22:05;;;;;;;12.55;9.35;;;563.90;1638.40;;;;;;5027490;28;20538;-64
2023/04/21 09:24:31;;;;;;;18.85;11.10;;;563.60;1664.00;;;;;;5030927;28;20032;-65
2023/04/21 09:26:57;;;;;;;16.63;8.70;;;563.50;1638.40;;;;;;5029344;28;20025;-66
2023/04/21 09:29:24;;;;;;;17.00;9.40;;;563.30;1664.00;;;;;;5027788;28;20103;-63
2023/04/21 09:31:50;;;;;;;11.70;9.23;;;563.40;1638.40;;;;;;5028731;28;20026;-64
2023/04/21 09:34:23;;;;;;;13.68;9.35;;;563.30;1664.00;;;;;;5029378;28;20458;-65
2023/04/21 09:37:00;;;;;;;16.67;10.10;;;563.80;1664.00;;;;;;5028076;28;20037;-65
2023/04/21 09:39:27;;;;;;;16.33;9.43;;;564.10;1689.60;;;;;;5028851;28;20041;-64
2023/04/21 09:41:53;;;;;;;16.10;8.95;;;563.80;1638.40;;;;;;5028531;28;20072;-64
2023/04/21 09:44:19;;;;;;;15.80;9.80;;;538.40;1638.40;;;;;;5028424;28;20056;-63
2023/04/21 09:46:48;;;;;;;13.45;9.77;;;538.50;1638.40;;;;;;5028912;28;20021;-62
2023/04/21 09:49:16;;;;;;;15.95;9.55;;;538.50;1715.20;;;;;;5028308;28;20029;-63
2023/04/21 09:51:42;;;;;;;17.45;10.52;;;538.20;1664.00;;;;;;5028741;28;20026;-63
2023/04/21 09:54:19;;;;;;;15.52;10.38;;;563.30;1664.00;;;;;;5027847;28;20033;-63
2023/04/21 09:56:48;;;;;;;15.30;8.98;;;538.50;1664.00;;;;;;5028526;28;20083;-62
2023/04/21 09:59:18;;;;;;;14.52;8.60;;;538.40;1664.00;;;;;;5028820;28;20470;-64
2023/04/21 10:01:48;;;;;;;14.00;11.35;;;538.20;1689.60;;;;;;5028414;28;20025;-62
2023/04/21 10:04:14;;;;;;;18.25;12.00;;;537.90;1740.80;;;;;;5028448;28;20026;-64
2023/04/21 10:06:40;;;;;;;14.23;10.40;;;537.60;1740.80;;;;;;5027907;28;20029;-61
2023/04/21 10:09:09;;;;;;;11.50;9.10;;;512.80;1740.80;;;;;;5028467;28;20025;-62
2023/04/21 10:11:35;;;;;;;13.20;8.73;;;512.70;1740.80;;;;;;5028100;28;20550;-62
2023/04/21 10:14:03;;;;;;;17.02;9.60;;;512.60;1740.80;;;;;;5028740;28;20033;-62
2023/04/21 10:16:28;;;;;;;10.63;8.50;;;512.50;1766.40;;;;;;5027079;28;20042;-63
2023/04/21 10:18:54;;;;;;;10.18;8.00;;;512.60;1766.40;;;;;;5027795;28;20029;-64
2023/04/21 10:21:21;;;;;;;17.05;8.63;;;512.80;1740.80;;;;;;5021150;28;20361;-65
2023/04/21 10:23:52;;;;;;;15.60;8.80;;;512.60;1766.40;;;;;;5008251;28;20026;-63
2023/04/21 10:26:31;;;;;;;15.80;10.45;;;512.70;1766.40;;;;;;5008235;28;20029;-63
2023/04/21 10:29:00;;;;;;;17.10;9.50;;;512.90;1766.40;;;;;;5008180;28;20044;-63
2023/04/21 10:31:31;;;;;;;14.20;9.15;;;537.70;1792.00;;;;;;5007877;28;20037;-64
2023/04/21 10:34:12;;;;;;;17.55;10.73;;;537.60;1817.60;;;;;;5007470;28;20051;-64
2023/04/21 10:36:58;;;;;;;14.73;9.25;;;537.80;1766.40;;;;;;5019110;28;20120;-66
2023/04/21 10:39:35;;;;;;;18.42;13.50;;;512.90;1766.40;;;;;;5008136;28;20033;-66
2023/04/21 10:42:23;;;;;;;21.40;12.93;;;537.60;1715.20;;;;;;5019574;28;20025;-63
2023/04/21 10:44:58;;;;;;;22.73;12.75;;;512.10;1664.00;;;;;;5019513;28;20143;-65
2023/04/21 10:47:36;;;;;;;20.73;10.93;;;512.50;1689.60;;;;;;5027220;28;20494;-64
2023/04/21 10:50:11;;;;;;;17.83;11.63;;;537.90;1715.20;;;;;;5027858;28;20049;-63
2023/04/21 10:52:37;;;;;;;20.45;11.60;;;538.10;1638.40;;;;;;5027680;28;20642;-66
2023/04/21 10:55:07;;;;;;;22.45;11.63;;;538.00;1664.00;;;;;;5028000;28;20076;-64
2023/04/21 10:57:34;;;;;;;21.88;12.38;;;538.10;1664.00;;;;;;5027507;28;20368;-64
2023/04/21 11:00:04;;;;;;;19.55;11.10;;;538.10;1638.40;;;;;;5026293;28;20053;-67
2023/04/21 11:02:30;;;;;;;11.50;9.02;;;538.00;1638.40;;;;;;5027686;28;20037;-65
2023/04/21 11:04:55;;;;;;;22.33;10.43;;;538.20;1638.40;;;;;;5027415;28;20029;-64
2023/04/21 11:07:24;;;;;;;14.25;8.38;;;538.10;1612.80;;;;;;5027614;28;20022;-63
2023/04/21 11:10:02;;;;;;;14.02;10.00;;;538.00;1587.20;;;;;;5027597;28;20029;-61
2023/04/21 11:12:33;;;;;;;21.35;9.73;;;538.40;1587.20;;;;;;5027320;28;20021;-63
2023/04/21 11:15:04;;;;;;;21.17;11.50;;;538.10;1612.80;;;;;;5027464;28;20033;-64
2023/04/21 11:17:30;;;;;;;16.85;9.95;;;537.80;1561.60;;;;;;5027287;28;20049;-63
2023/04/21 11:19:57;;;;;;;20.90;15.43;;;538.00;1587.20;;;;;;5027331;28;20022;-65
2023/04/21 11:22:25;;;;;;;25.23;15.05;;;512.90;1536.00;;;;;;5027830;28;20408;-63
2023/04/21 11:24:55;;;;;;;21.20;12.93;;;512.80;1561.60;;;;;;5027747;28;20053;-65
2023/04/21 11:27:22;;;;;;;17.45;12.65;;;512.80;1561.60;;;;;;5029460;28;20033;-65
2023/04/21 11:29:49;;;;;;;16.98;13.68;;;537.80;1612.80;;;;;;5028487;28;20033;-63
2023/04/21 11:32:16;;;;;;;32.95;16.90;;;538.00;1587.20;;;;;;5028818;28;20104;-63
2023/04/21 11:34:42;;;;;;;19.10;13.07;;;538.40;1561.60;;;;;;5029081;28;20079;-65
2023/04/21 11:37:09;;;;;;;21.38;12.10;;;538.50;1561.60;;;;;;5028766;28;20037;-64
2023/04/21 11:39:38;;;;;;;14.75;8.70;;;563.40;1561.60;;;;;;5028713;28;20029;-63
2023/04/21 11:42:04;;;;;;;18.38;11.18;;;563.30;1536.00;;;;;;5029132;28;20438;-64
2023/04/21 11:44:38;;;;;;;23.50;12.07;;;563.40;1536.00;;;;;;5028829;28;20108;-63
2023/04/21 11:47:18;;;;;;;34.10;17.35;;;563.40;1510.40;;;;;;5028841;28;20024;-65
2023/04/21 11:49:51;;;;;;;22.50;11.68;;;563.20;1561.60;;;;;;5028987;28;20029;-63
2023/04/21 11:52:21;;;;;;;21.88;12.05;;;563.70;1536.00;;;;;;5028885;28;20025;-64
2023/04/21 11:54:47;;;;;;;26.67;13.68;;;563.90;1510.40;;;;;;5028417;28;20112;-64
2023/04/21 11:57:17;;;;;;;20.15;10.00;;;563.80;1510.40;;;;;;5028908;28;20129;-65
2023/04/21 11:59:46;;;;;;;19.63;10.32;;;563.70;1510.40;;;;;;5028532;28;20464;-64